Time;durP1;ratioP1;P1;durP2;ratioP2;P2;SDS_P1;SDS_P2;PMS_P1;PMS_P2;Temp;Humidity;BMP_temperature;BMP_pressure;BME280_temperature;BME280_humidity;BME280_pressure;Samples;Min_cycle;Max_cycle;Signal;HPM_P1;HPM_P2
2022/11/29 00:01:36;;;;;;;6.78;3.22;;;12.30;99.90;;;;;;5031329;28;20474;-73
2022/11/29 00:04:02;;;;;;;6.85;3.15;;;12.20;99.90;;;;;;5031568;28;20477;-73
2022/11/29 00:06:32;;;;;;;7.68;3.67;;;12.10;99.90;;;;;;5031352;28;20166;-73
2022/11/29 00:09:15;;;;;;;4.47;2.95;;;12.10;99.90;;;;;;5031763;28;20541;-73
2022/11/29 00:14:29;;;;;;;6.30;3.45;;;12.00;99.90;;;;;;5031523;28;20499;-73
2022/11/29 00:17:00;;;;;;;4.53;2.97;;;12.00;99.90;;;;;;5031697;28;20056;-74
2022/11/29 00:19:38;;;;;;;7.13;3.35;;;12.00;99.90;;;;;;5030159;28;20029;-73
2022/11/29 00:22:05;;;;;;;6.00;2.97;;;12.00;99.90;;;;;;5029860;28;20033;-73
2022/11/29 00:24:32;;;;;;;6.72;3.08;;;12.00;99.90;;;;;;5031116;28;20040;-72
2022/11/29 00:27:01;;;;;;;7.28;3.45;;;12.00;99.90;;;;;;5031450;28;20087;-73
2022/11/29 00:29:29;;;;;;;6.57;4.05;;;12.00;99.90;;;;;;5031011;28;20037;-73
2022/11/29 00:32:06;;;;;;;5.00;3.03;;;11.90;99.90;;;;;;5031559;28;20028;-73
2022/11/29 00:34:36;;;;;;;5.65;3.65;;;11.90;99.90;;;;;;5031275;28;20034;-73
2022/11/29 00:37:03;;;;;;;7.53;4.03;;;11.90;99.90;;;;;;5030664;28;20048;-74
2022/11/29 00:39:29;;;;;;;9.25;3.72;;;11.80;99.90;;;;;;5013994;28;20474;-75
2022/11/29 00:41:57;;;;;;;12.10;4.40;;;11.80;99.90;;;;;;5031992;28;20048;-75
2022/11/29 00:44:23;;;;;;;7.15;3.90;;;11.70;99.90;;;;;;5031795;28;20092;-76
2022/11/29 00:46:49;;;;;;;6.00;2.95;;;11.70;99.90;;;;;;5013882;28;20037;-75
2022/11/29 00:49:16;;;;;;;7.40;3.70;;;11.70;99.90;;;;;;5031764;28;20053;-75
2022/11/29 00:51:43;;;;;;;6.30;3.85;;;11.70;99.90;;;;;;5030636;28;20033;-78
2022/11/29 00:54:09;;;;;;;6.33;4.00;;;11.60;99.90;;;;;;5031424;28;20605;-75
2022/11/29 00:56:35;;;;;;;5.53;3.40;;;11.50;99.90;;;;;;5031753;28;20022;-78
2022/11/29 00:59:17;;;;;;;8.03;4.23;;;11.50;99.90;;;;;;5030021;28;20435;-75
2022/11/29 01:01:43;;;;;;;5.70;3.97;;;11.50;99.90;;;;;;5031499;28;20079;-79
2022/11/29 01:04:09;;;;;;;6.57;4.67;;;11.50;99.90;;;;;;5031613;28;20107;-76
2022/11/29 01:06:52;;;;;;;6.10;3.50;;;11.40;99.90;;;;;;5031552;28;20450;-75
2022/11/29 01:09:18;;;;;;;5.32;2.78;;;11.50;99.90;;;;;;5031686;28;20026;-75
2022/11/29 01:11:44;;;;;;;6.20;3.50;;;11.50;99.90;;;;;;5033585;28;20022;-75
2022/11/29 01:14:11;;;;;;;4.85;3.35;;;11.50;99.90;;;;;;5035454;28;20105;-74
2022/11/29 01:16:40;;;;;;;6.22;2.97;;;11.50;99.90;;;;;;5035434;28;20236;-75
2022/11/29 01:19:06;;;;;;;6.80;3.38;;;11.50;99.90;;;;;;5033778;28;20029;-74
2022/11/29 01:21:51;;;;;;;6.60;3.10;;;11.40;99.90;;;;;;5035046;28;20041;-74
2022/11/29 01:24:17;;;;;;;5.70;3.13;;;11.40;99.90;;;;;;5033491;28;20347;-73
2022/11/29 01:26:44;;;;;;;9.20;3.65;;;11.30;99.90;;;;;;5033861;28;20339;-73
2022/11/29 01:29:11;;;;;;;6.40;3.70;;;11.30;99.90;;;;;;5034656;28;20025;-73
2022/11/29 01:31:38;;;;;;;8.40;4.05;;;11.30;99.90;;;;;;5034981;28;20056;-73
2022/11/29 01:34:06;;;;;;;5.63;3.40;;;11.30;99.90;;;;;;5034463;28;20024;-73
2022/11/29 01:36:34;;;;;;;7.22;3.50;;;11.30;99.90;;;;;;5034114;28;20644;-73
2022/11/29 01:39:05;;;;;;;6.45;3.63;;;11.30;99.90;;;;;;5033903;28;20037;-73
2022/11/29 01:41:35;;;;;;;4.90;2.92;;;11.30;99.90;;;;;;5034043;28;20128;-71
2022/11/29 01:44:03;;;;;;;6.97;3.28;;;11.30;99.90;;;;;;5034108;28;20033;-74
2022/11/29 01:46:33;;;;;;;4.25;2.92;;;11.30;99.90;;;;;;5034143;28;20069;-74
2022/11/29 01:49:06;;;;;;;7.55;3.22;;;11.20;99.90;;;;;;5034086;28;20486;-72
2022/11/29 01:51:33;;;;;;;5.80;3.72;;;11.20;99.90;;;;;;5034009;28;20061;-70
2022/11/29 01:53:59;;;;;;;9.02;3.75;;;11.10;99.90;;;;;;5033517;28;20382;-72
2022/11/29 01:56:27;;;;;;;6.40;3.15;;;11.10;99.90;;;;;;5032599;28;20125;-72
2022/11/29 01:58:54;;;;;;;7.75;2.50;;;11.10;99.90;;;;;;5033578;28;20032;-72
2022/11/29 02:01:21;;;;;;;6.32;3.22;;;11.10;99.90;;;;;;5032089;28;20140;-72
2022/11/29 02:03:47;;;;;;;8.60;4.18;;;11.10;99.90;;;;;;5033603;28;20037;-72
2022/11/29 02:06:14;;;;;;;9.20;4.50;;;11.10;99.90;;;;;;5032702;28;20025;-72
2022/11/29 02:08:42;;;;;;;7.72;4.15;;;11.10;99.90;;;;;;5033767;28;20151;-72
2022/11/29 02:11:27;;;;;;;4.85;3.38;;;11.10;99.90;;;;;;5018327;28;20479;-72
2022/11/29 02:14:34;;;;;;;4.72;3.42;;;11.10;99.90;;;;;;5013743;28;20041;-72
2022/11/29 02:16:59;;;;;;;;;;;11.10;99.90;;;;;;4990598;28;20034;-73
2022/11/29 02:20:05;;;;;;;8.60;3.87;;;11.10;99.90;;;;;;5012344;28;20038;-72
2022/11/29 02:22:47;;;;;;;10.68;4.82;;;11.10;99.90;;;;;;5012930;28;20499;-73
2022/11/29 02:25:31;;;;;;;8.25;4.60;;;11.00;99.90;;;;;;5012236;28;20387;-72
2022/11/29 02:28:29;;;;;;;5.10;3.05;;;11.00;99.90;;;;;;5011972;28;20030;-72
2022/11/29 02:31:10;;;;;;;7.75;3.53;;;11.00;99.90;;;;;;5013228;28;20045;-72
2022/11/29 02:33:52;;;;;;;6.03;4.03;;;11.00;99.90;;;;;;5013661;28;20029;-72
2022/11/29 02:36:30;;;;;;;5.80;3.33;;;11.00;99.90;;;;;;5026756;28;20486;-72
2022/11/29 02:39:32;;;;;;;5.55;2.92;;;11.00;99.90;;;;;;5033148;28;20032;-72
2022/11/29 02:42:20;;;;;;;7.68;3.78;;;11.00;99.90;;;;;;5025772;28;20038;-72
2022/11/29 02:45:14;;;;;;;5.25;3.97;;;11.00;99.90;;;;;;5033230;28;20103;-72
2022/11/29 02:48:25;;;;;;;7.22;3.47;;;11.00;99.90;;;;;;5048535;28;20033;-72
2022/11/29 02:51:21;;;;;;;5.97;3.72;;;11.00;99.90;;;;;;5026068;28;20029;-72
2022/11/29 02:54:15;;;;;;;9.95;5.10;;;11.00;99.90;;;;;;5032788;28;20075;-72
2022/11/29 02:57:13;;;;;;;9.00;4.45;;;11.00;99.90;;;;;;5032721;28;20041;-72
2022/11/29 03:00:00;;;;;;;7.90;2.88;;;11.00;99.90;;;;;;5032976;28;20107;-72
2022/11/29 03:02:49;;;;;;;5.75;3.60;;;11.00;99.90;;;;;;5032375;28;20480;-72
2022/11/29 03:05:31;;;;;;;8.82;4.30;;;11.10;99.90;;;;;;5032888;28;20124;-72
2022/11/29 03:08:00;;;;;;;7.50;3.00;;;11.00;99.90;;;;;;5032681;28;20056;-72
2022/11/29 03:11:03;;;;;;;7.20;3.83;;;11.00;99.90;;;;;;5032648;28;20109;-72
2022/11/29 03:13:29;;;;;;;7.97;4.72;;;11.00;99.90;;;;;;5032886;28;20021;-73
2022/11/29 03:16:07;;;;;;;7.32;4.40;;;11.00;99.90;;;;;;5032493;28;20028;-72
2022/11/29 03:19:00;;;;;;;9.02;4.50;;;11.00;99.90;;;;;;5032590;28;20025;-72
2022/11/29 03:21:52;;;;;;;6.15;3.55;;;10.90;99.90;;;;;;5014633;28;20040;-72
2022/11/29 03:24:28;;;;;;;4.78;3.63;;;10.90;99.90;;;;;;5032876;28;20068;-73
2022/11/29 03:27:05;;;;;;;7.30;4.75;;;10.90;99.90;;;;;;5032721;28;20482;-72
2022/11/29 03:30:03;;;;;;;6.75;4.38;;;10.90;99.90;;;;;;5031727;28;20044;-72
2022/11/29 03:32:37;;;;;;;6.05;4.55;;;11.00;99.90;;;;;;5026287;28;20037;-72
2022/11/29 03:35:28;;;;;;;9.00;4.07;;;11.00;99.90;;;;;;5032115;28;20025;-72
2022/11/29 03:38:16;;;;;;;6.28;4.05;;;11.00;99.90;;;;;;5031703;28;20032;-71
2022/11/29 03:41:11;;;;;;;6.40;3.42;;;11.10;99.90;;;;;;5031557;28;20470;-72
2022/11/29 03:43:56;;;;;;;8.50;4.05;;;11.10;99.90;;;;;;5031747;28;20034;-72
2022/11/29 03:46:35;;;;;;;5.90;3.38;;;11.10;99.90;;;;;;5013441;28;20036;-71
2022/11/29 03:49:52;;;;;;;5.25;3.67;;;11.10;99.90;;;;;;5031258;28;20061;-73
2022/11/29 03:52:34;;;;;;;7.25;4.00;;;11.20;99.90;;;;;;4950812;28;20027;-72
2022/11/29 03:55:13;;;;;;;8.40;3.92;;;11.10;99.90;;;;;;4934880;29;20043;-72
2022/11/29 03:58:10;;;;;;;5.55;3.08;;;11.10;99.90;;;;;;4951277;29;20050;-72
2022/11/29 04:00:48;;;;;;;5.68;3.45;;;11.20;99.90;;;;;;4951640;29;20038;-72
2022/11/29 04:03:32;;;;;;;9.05;3.85;;;11.20;99.90;;;;;;4935265;29;20067;-72
2022/11/29 04:06:16;;;;;;;5.28;3.70;;;11.20;99.90;;;;;;4951370;29;20036;-72
2022/11/29 04:09:20;;;;;;;5.85;3.60;;;11.30;99.90;;;;;;4952089;29;20178;-72
2022/11/29 04:12:13;;;;;;;5.03;3.20;;;11.30;99.90;;;;;;4951892;29;20023;-73
2022/11/29 04:15:15;;;;;;;6.28;3.30;;;11.20;99.90;;;;;;4951889;29;20043;-72
2022/11/29 04:18:02;;;;;;;5.75;3.78;;;11.20;99.90;;;;;;4951758;29;20023;-73
2022/11/29 04:20:56;;;;;;;5.63;3.22;;;11.30;99.90;;;;;;4951265;29;20050;-72
2022/11/29 04:23:40;;;;;;;4.90;3.45;;;11.30;99.90;;;;;;4951162;29;20074;-72
2022/11/29 04:26:27;;;;;;;6.95;3.70;;;11.30;99.90;;;;;;4952237;29;20031;-72
2022/11/29 04:28:53;;;;;;;;;;;11.40;99.90;;;;;;5024985;28;20033;-72
2022/11/29 04:31:51;;;;;;;5.80;3.50;;;11.40;99.90;;;;;;5032101;28;20238;-72
2022/11/29 04:34:41;;;;;;;5.85;3.78;;;11.40;99.90;;;;;;5032384;28;20112;-73
2022/11/29 04:37:22;;;;;;;7.78;3.33;;;11.40;99.90;;;;;;5031739;28;20041;-74
2022/11/29 04:40:07;;;;;;;12.30;4.53;;;11.40;99.90;;;;;;5032072;28;20030;-72
2022/11/29 04:42:54;;;;;;;4.85;3.17;;;11.50;99.90;;;;;;5031736;28;20167;-72
2022/11/29 04:45:42;;;;;;;4.07;2.45;;;11.60;99.90;;;;;;5031616;28;20024;-73
2022/11/29 04:48:32;;;;;;;5.00;3.35;;;11.70;99.90;;;;;;5031539;28;20030;-72
2022/11/29 04:51:35;;;;;;;6.10;3.65;;;11.80;99.90;;;;;;5031859;28;20029;-71
2022/11/29 04:54:19;;;;;;;6.75;3.75;;;11.80;99.90;;;;;;5031508;28;20116;-71
2022/11/29 04:57:17;;;;;;;8.43;3.47;;;11.80;99.90;;;;;;5031381;28;20026;-68
2022/11/29 05:00:08;;;;;;;6.07;3.58;;;11.70;99.90;;;;;;5037387;28;20445;-70
2022/11/29 05:02:53;;;;;;;7.93;3.83;;;11.70;99.90;;;;;;5046737;28;20033;-71
2022/11/29 05:05:34;;;;;;;6.65;3.47;;;11.70;99.90;;;;;;5051705;28;20032;-71
2022/11/29 05:08:06;;;;;;;7.35;3.65;;;11.70;99.90;;;;;;5051587;28;20416;-71
2022/11/29 05:10:46;;;;;;;6.82;3.55;;;11.70;99.90;;;;;;5051796;28;20040;-71
2022/11/29 05:13:34;;;;;;;5.95;3.65;;;11.60;99.90;;;;;;5051724;28;20029;-71
2022/11/29 05:16:29;;;;;;;5.05;2.75;;;11.70;99.90;;;;;;5051880;28;20104;-67
2022/11/29 05:19:26;;;;;;;5.25;2.80;;;11.70;99.90;;;;;;5052924;28;20031;-71
2022/11/29 05:22:04;;;;;;;7.35;4.07;;;11.70;99.90;;;;;;5052847;28;20076;-71
2022/11/29 05:24:40;;;;;;;5.50;3.50;;;11.60;99.90;;;;;;5052681;28;20054;-71
2022/11/29 05:27:47;;;;;;;4.30;2.90;;;11.60;99.90;;;;;;5052255;28;20434;-72
2022/11/29 05:30:18;;;;;;;5.85;3.50;;;11.50;99.90;;;;;;5052868;28;20033;-71
2022/11/29 05:32:57;;;;;;;3.80;2.42;;;11.50;99.90;;;;;;5034084;28;20037;-72
2022/11/29 05:35:45;;;;;;;6.25;3.85;;;11.40;99.90;;;;;;5051873;28;20401;-71
2022/11/29 05:38:38;;;;;;;7.03;3.65;;;11.40;99.90;;;;;;5052802;28;20025;-71
2022/11/29 05:41:23;;;;;;;6.47;2.80;;;11.30;99.90;;;;;;5052933;28;20025;-71
2022/11/29 05:44:02;;;;;;;5.43;3.17;;;11.30;99.90;;;;;;5052007;28;20059;-68
2022/11/29 05:46:59;;;;;;;5.53;3.40;;;11.30;99.90;;;;;;5013991;28;20095;-71
2022/11/29 05:50:06;;;;;;;6.50;3.13;;;11.30;99.90;;;;;;5032239;28;20033;-71
2022/11/29 05:53:03;;;;;;;6.60;3.03;;;11.30;99.90;;;;;;5031124;28;20112;-70
2022/11/29 05:56:05;;;;;;;6.00;3.80;;;11.30;99.90;;;;;;5022596;28;20021;-71
2022/11/29 05:58:49;;;;;;;6.15;3.10;;;11.30;99.90;;;;;;5040880;28;20096;-68
2022/11/29 06:01:30;;;;;;;6.00;3.03;;;11.20;99.90;;;;;;5041939;28;20033;-71
2022/11/29 06:04:20;;;;;;;4.97;3.55;;;11.30;99.90;;;;;;5024272;28;20025;-72
2022/11/29 06:06:52;;;;;;;5.32;2.90;;;11.30;99.90;;;;;;5043267;28;20171;-73
2022/11/29 06:09:47;;;;;;;5.05;3.42;;;11.30;99.90;;;;;;5041407;28;20044;-71
2022/11/29 06:12:20;;;;;;;9.00;2.88;;;11.30;99.90;;;;;;5018406;28;20057;-70
2022/11/29 06:15:22;;;;;;;6.07;3.10;;;11.30;99.90;;;;;;5014680;28;20083;-73
2022/11/29 06:18:25;;;;;;;5.72;3.67;;;11.30;99.90;;;;;;5016200;28;20443;-72
2022/11/29 06:21:18;;;;;;;3.90;2.70;;;11.30;99.90;;;;;;5015938;28;20018;-73
2022/11/29 06:24:39;;;;;;;5.43;3.25;;;11.30;99.90;;;;;;5015874;28;20025;-72
2022/11/29 06:27:36;;;;;;;5.88;3.70;;;11.30;99.90;;;;;;5013219;28;20032;-72
2022/11/29 06:30:14;;;;;;;4.78;3.00;;;11.30;99.90;;;;;;5013626;28;20034;-72
2022/11/29 06:32:51;;;;;;;6.97;3.63;;;11.30;99.90;;;;;;5013305;28;20034;-72
2022/11/29 06:35:27;;;;;;;4.35;2.72;;;11.30;99.90;;;;;;5010363;28;20532;-65
2022/11/29 06:37:59;;;;;;;8.10;3.35;;;11.30;99.90;;;;;;4992351;28;20104;-70
2022/11/29 06:40:26;;;;;;;5.93;3.60;;;11.30;99.90;;;;;;4992946;28;20113;-72
2022/11/29 06:42:52;;;;;;;7.85;3.80;;;11.30;99.90;;;;;;4992824;28;20387;-71
2022/11/29 06:45:20;;;;;;;3.85;2.40;;;11.30;99.90;;;;;;4992684;28;20113;-71
2022/11/29 06:47:59;;;;;;;5.97;2.10;;;11.30;99.90;;;;;;4992692;28;20110;-70
2022/11/29 06:50:49;;;;;;;4.10;2.20;;;11.30;99.90;;;;;;4992991;28;20026;-72
2022/11/29 06:53:21;;;;;;;3.72;1.98;;;11.30;99.90;;;;;;4993101;28;20086;-73
2022/11/29 06:56:14;;;;;;;5.35;3.00;;;11.40;99.90;;;;;;4992874;28;20421;-71
2022/11/29 06:59:01;;;;;;;2.72;2.13;;;11.40;99.90;;;;;;4992828;28;20488;-72
2022/11/29 07:01:40;;;;;;;3.20;2.05;;;11.40;99.90;;;;;;4992531;28;20160;-72
2022/11/29 07:04:44;;;;;;;3.90;2.20;;;11.40;99.90;;;;;;4992130;28;20038;-72
2022/11/29 07:07:16;;;;;;;4.53;2.85;;;11.40;99.90;;;;;;4992502;28;20061;-72
2022/11/29 07:09:42;;;;;;;4.25;2.40;;;11.40;99.90;;;;;;4976480;28;20127;-71
2022/11/29 07:12:09;;;;;;;5.43;2.30;;;11.40;99.90;;;;;;4974958;28;20027;-75
2022/11/29 07:14:35;;;;;;;4.38;2.75;;;11.30;99.90;;;;;;4991730;28;20053;-70
2022/11/29 07:17:23;;;;;;;3.95;2.55;;;11.30;99.90;;;;;;4992215;28;20034;-73
2022/11/29 07:20:12;;;;;;;4.05;2.80;;;11.40;99.90;;;;;;4991674;28;20137;-71
2022/11/29 07:23:07;;;;;;;3.38;2.10;;;11.40;99.90;;;;;;4975398;28;20367;-71
2022/11/29 07:26:01;;;;;;;3.53;2.60;;;11.50;99.90;;;;;;4991939;28;20455;-71
2022/11/29 07:28:54;;;;;;;3.90;2.25;;;11.40;99.90;;;;;;4964024;28;20026;-65
2022/11/29 07:31:57;;;;;;;4.03;2.30;;;11.40;99.90;;;;;;5008900;28;20021;-70
2022/11/29 07:34:44;;;;;;;3.72;2.20;;;11.40;99.90;;;;;;5011414;28;20497;-66
2022/11/29 07:37:29;;;;;;;3.45;2.00;;;11.40;99.90;;;;;;5010447;28;20057;-71
2022/11/29 07:40:10;;;;;;;5.07;2.30;;;11.40;99.90;;;;;;5011349;28;20092;-69
2022/11/29 07:42:39;;;;;;;2.97;1.63;;;11.50;99.90;;;;;;5010896;28;20145;-67
2022/11/29 07:45:28;;;;;;;4.47;2.17;;;11.60;99.90;;;;;;5010935;28;20069;-65
2022/11/29 07:47:55;;;;;;;3.05;2.00;;;11.50;99.90;;;;;;5010655;28;20033;-71
2022/11/29 07:50:21;;;;;;;4.20;1.88;;;11.60;99.90;;;;;;5010298;28;20022;-71
2022/11/29 07:52:48;;;;;;;3.03;2.10;;;11.70;99.90;;;;;;5010597;28;20434;-71
2022/11/29 07:55:18;;;;;;;2.53;1.70;;;11.80;99.90;;;;;;5010488;28;20038;-71
2022/11/29 07:57:45;;;;;;;4.25;2.13;;;11.90;99.90;;;;;;5010761;28;20076;-81
2022/11/29 08:00:11;;;;;;;4.20;1.88;;;12.10;99.90;;;;;;4994183;28;20443;-73
2022/11/29 08:02:37;;;;;;;4.72;1.92;;;12.20;99.90;;;;;;5010681;28;20082;-72
2022/11/29 08:05:04;;;;;;;2.07;1.40;;;12.20;99.90;;;;;;5010146;28;20506;-71
2022/11/29 08:07:32;;;;;;;2.50;1.65;;;12.30;99.90;;;;;;5009944;28;20034;-71
2022/11/29 08:09:58;;;;;;;4.10;1.80;;;12.40;99.90;;;;;;5009704;28;20049;-72
2022/11/29 08:12:24;;;;;;;3.45;1.70;;;12.20;99.90;;;;;;5009912;28;20072;-70
2022/11/29 08:14:50;;;;;;;4.60;1.67;;;12.20;99.90;;;;;;5010798;28;20034;-72
2022/11/29 08:17:17;;;;;;;3.65;1.83;;;12.20;99.90;;;;;;5009951;28;20052;-73
2022/11/29 08:19:43;;;;;;;3.88;2.00;;;12.20;99.90;;;;;;5009485;28;20060;-70
2022/11/29 08:22:10;;;;;;;3.30;1.77;;;12.30;99.90;;;;;;5010638;28;20557;-72
2022/11/29 08:24:36;;;;;;;;;;;12.30;99.90;;;;;;5010869;28;20094;-72
2022/11/29 08:27:02;;;;;;;3.10;1.97;;;12.30;99.90;;;;;;5010288;28;19949;-73
2022/11/29 08:29:30;;;;;;;;;;;12.30;99.90;;;;;;5010362;28;20264;-71
2022/11/29 08:31:56;;;;;;;3.60;1.95;;;12.30;99.90;;;;;;5010075;28;19921;-71
2022/11/29 08:34:23;;;;;;;3.00;1.70;;;12.30;99.90;;;;;;5010064;28;20483;-71
2022/11/29 08:36:50;;;;;;;2.88;1.63;;;12.30;99.90;;;;;;5009689;28;20058;-71
2022/11/29 08:39:16;;;;;;;;;;;12.20;99.90;;;;;;5010418;28;20040;-71
2022/11/29 08:41:42;;;;;;;5.25;1.73;;;12.30;99.90;;;;;;5010173;28;19913;-72
2022/11/29 08:44:08;;;;;;;3.10;1.80;;;12.50;99.90;;;;;;5009904;28;20030;-71
2022/11/29 08:49:22;;;;;;;3.63;1.70;;;12.50;99.90;;;;;;5009956;28;20524;-72
2022/11/29 08:53:39;;;;;;;2.50;1.50;;;12.60;99.90;;;;;;5009678;28;20026;-72
2022/11/29 08:54:38;;;;;;;4.78;2.10;;;12.70;99.90;;;;;;5009390;28;20029;-79
2022/11/29 08:57:09;;;;;;;2.93;1.60;;;12.80;99.90;;;;;;5009660;28;20038;-71
2022/11/29 08:59:35;;;;;;;5.93;2.22;;;12.90;99.90;;;;;;5010204;28;20034;-71
2022/11/29 09:02:02;;;;;;;3.17;1.50;;;13.10;99.90;;;;;;5009852;28;20514;-71
2022/11/29 09:04:28;;;;;;;;;;;13.30;99.90;;;;;;5009928;28;20065;-71
2022/11/29 09:06:54;;;;;;;3.05;1.65;;;13.30;99.90;;;;;;4992684;28;19910;-73
2022/11/29 09:09:21;;;;;;;3.15;1.67;;;13.40;99.90;;;;;;5009153;28;20145;-71
2022/11/29 09:11:46;;;;;;;;;;;13.30;99.90;;;;;;5009570;28;20113;-72
2022/11/29 09:14:14;;;;;;;;;;;13.20;99.90;;;;;;5009268;28;19916;-72
2022/11/29 09:16:40;;;;;;;3.50;1.58;;;13.30;99.90;;;;;;5009081;28;19916;-73
2022/11/29 09:19:08;;;;;;;2.60;1.40;;;13.30;99.90;;;;;;5009726;28;20041;-78
2022/11/29 09:21:35;;;;;;;3.33;1.95;;;13.20;99.90;;;;;;5009359;28;20045;-79
2022/11/29 09:24:05;;;;;;;3.22;1.48;;;13.20;99.90;;;;;;5009839;28;20080;-78
2022/11/29 09:26:36;;;;;;;4.32;1.63;;;13.30;99.90;;;;;;4993211;28;20026;-75
2022/11/29 09:29:04;;;;;;;2.90;1.40;;;13.20;99.90;;;;;;5009658;28;20041;-78
2022/11/29 09:31:31;;;;;;;2.45;1.10;;;13.20;99.90;;;;;;5011381;28;20431;-78
2022/11/29 09:33:57;;;;;;;3.10;1.50;;;13.10;99.90;;;;;;4996778;28;20041;-78
2022/11/29 09:36:24;;;;;;;3.25;1.15;;;13.10;99.90;;;;;;5013262;28;20125;-78
2022/11/29 09:38:50;;;;;;;1.83;1.13;;;13.10;99.90;;;;;;5002558;28;20432;-78
2022/11/29 09:41:54;;;;;;;2.00;1.20;;;12.90;99.90;;;;;;5014961;28;20030;-78
2022/11/29 09:44:58;;;;;;;2.35;1.30;;;13.10;99.90;;;;;;5015711;28;20487;-79
2022/11/29 09:47:37;;;;;;;3.42;1.40;;;13.20;99.90;;;;;;5015628;28;20029;-79
2022/11/29 09:50:25;;;;;;;2.42;1.35;;;13.30;99.90;;;;;;5015589;28;20042;-78
2022/11/29 09:53:00;;;;;;;2.50;1.30;;;13.40;99.90;;;;;;5014918;28;20025;-78
2022/11/29 09:55:47;;;;;;;3.50;1.67;;;13.30;99.90;;;;;;5014932;28;20034;-78
2022/11/29 09:58:19;;;;;;;3.38;1.80;;;13.50;99.90;;;;;;5015717;28;20037;-78
2022/11/29 10:00:52;;;;;;;4.50;1.60;;;13.70;99.90;;;;;;5015269;28;20083;-77
2022/11/29 10:03:52;;;;;;;2.67;1.40;;;14.00;99.90;;;;;;5015426;28;20144;-76
2022/11/29 10:06:27;;;;;;;2.60;1.40;;;14.00;99.90;;;;;;4992939;28;20031;-77
2022/11/29 10:09:20;;;;;;;2.38;1.38;;;13.90;99.90;;;;;;4993349;28;20372;-77
2022/11/29 10:12:01;;;;;;;2.65;1.30;;;14.10;99.90;;;;;;4992055;28;20384;-77
2022/11/29 10:15:17;;;;;;;8.95;1.88;;;14.20;99.90;;;;;;4989491;28;20093;-75
2022/11/29 10:18:02;;;;;;;2.25;1.15;;;14.40;99.90;;;;;;4992760;28;20034;-74
2022/11/29 10:20:36;;;;;;;3.03;1.40;;;14.40;99.90;;;;;;5026906;22;20057;-73
2022/11/29 10:23:30;;;;;;;2.58;1.52;;;14.30;99.90;;;;;;5037037;28;20115;-76
2022/11/29 10:25:59;;;;;;;2.08;1.33;;;14.30;99.90;;;;;;5054893;28;20523;-76
2022/11/29 10:28:31;;;;;;;2.35;1.20;;;14.30;99.90;;;;;;5054475;28;20036;-79
2022/11/29 10:31:25;;;;;;;3.00;1.40;;;14.30;99.90;;;;;;5054986;28;20029;-81
2022/11/29 10:33:55;;;;;;;3.72;1.38;;;14.10;99.90;;;;;;5054191;28;20017;-81
2022/11/29 10:36:44;;;;;;;2.60;1.13;;;14.20;99.90;;;;;;5054716;28;20472;-79
2022/11/29 10:39:20;;;;;;;2.42;1.15;;;14.00;99.90;;;;;;5054791;28;20028;-79
2022/11/29 10:42:47;;;;;;;2.27;1.43;;;14.00;99.90;;;;;;5054234;28;20112;-78
2022/11/29 10:45:02;;;;;;;2.67;1.65;;;14.00;99.90;;;;;;5053823;28;20032;-79
2022/11/29 10:47:28;;;;;;;1.65;1.02;;;14.00;99.90;;;;;;5054687;28;20115;-75
2022/11/29 10:49:55;;;;;;;2.08;1.27;;;14.00;99.90;;;;;;5053846;28;20078;-77
2022/11/29 10:52:23;;;;;;;3.90;1.60;;;13.80;99.90;;;;;;5053618;28;20116;-78
2022/11/29 10:54:52;;;;;;;5.03;1.65;;;13.70;99.90;;;;;;5053876;28;20028;-78
2022/11/29 10:57:24;;;;;;;2.25;1.17;;;13.80;99.90;;;;;;5036353;28;20047;-81
2022/11/29 11:00:10;;;;;;;4.13;1.80;;;13.90;99.90;;;;;;5053817;28;20167;-78
2022/11/29 11:02:37;;;;;;;2.60;1.55;;;13.90;99.90;;;;;;5035536;28;20037;-73
2022/11/29 11:05:12;;;;;;;2.22;1.30;;;14.00;99.90;;;;;;5053906;28;20473;-72
2022/11/29 11:07:38;;;;;;;3.72;1.60;;;13.90;99.90;;;;;;5053781;28;20032;-80
2022/11/29 11:10:26;;;;;;;4.22;1.60;;;13.80;99.90;;;;;;5035951;28;20025;-81
2022/11/29 11:13:17;;;;;;;3.25;1.55;;;13.80;99.90;;;;;;5053844;28;20377;-78
2022/11/29 11:15:44;;;;;;;3.08;1.38;;;13.80;99.90;;;;;;5053535;28;20446;-79
2022/11/29 11:18:20;;;;;;;3.00;1.80;;;13.70;99.90;;;;;;5035651;28;20104;-77
2022/11/29 11:20:53;;;;;;;4.15;1.63;;;13.90;99.90;;;;;;5053163;28;20068;-78
2022/11/29 11:23:31;;;;;;;2.80;1.55;;;14.00;99.90;;;;;;5053573;28;20033;-79
2022/11/29 11:26:01;;;;;;;2.33;1.60;;;13.80;99.90;;;;;;5051131;28;20100;-73
2022/11/29 11:28:40;;;;;;;4.10;1.80;;;13.90;99.90;;;;;;5053189;28;20057;-77
2022/11/29 11:31:09;;;;;;;4.43;1.63;;;13.90;99.90;;;;;;5035297;28;20028;-80
2022/11/29 11:33:40;;;;;;;2.30;1.35;;;14.00;99.90;;;;;;5054260;28;20039;-77
2022/11/29 11:36:23;;;;;;;2.80;1.42;;;14.00;99.90;;;;;;5054262;28;20021;-82
2022/11/29 11:38:57;;;;;;;3.22;1.60;;;14.00;99.90;;;;;;5035452;28;20048;-77
2022/11/29 11:44:52;;;;;;;2.20;1.30;;;13.90;99.90;;;;;;5053804;28;20039;-82
2022/11/29 11:47:24;;;;;;;2.60;1.40;;;14.00;99.90;;;;;;5053261;28;20021;-79
2022/11/29 11:49:54;;;;;;;2.90;1.52;;;14.00;99.90;;;;;;5053329;28;20021;-80
2022/11/29 11:55:54;;;;;;;3.00;1.42;;;14.10;99.90;;;;;;5032698;28;20075;-82
2022/11/29 11:58:23;;;;;;;2.55;1.60;;;14.30;99.90;;;;;;5052367;28;20476;-80
2022/11/29 12:00:57;;;;;;;7.88;1.90;;;14.30;99.90;;;;;;5053351;28;20047;-81
2022/11/29 12:03:43;;;;;;;3.53;1.52;;;14.40;99.90;;;;;;5053538;28;20029;-82
2022/11/29 12:06:31;;;;;;;2.45;1.40;;;14.40;99.90;;;;;;5052625;28;20028;-81
2022/11/29 12:09:10;;;;;;;2.53;1.50;;;14.30;99.90;;;;;;5053176;28;20410;-80
2022/11/29 12:12:05;;;;;;;2.63;1.42;;;14.10;99.90;;;;;;5068725;22;20386;-80
2022/11/29 12:14:54;;;;;;;2.63;1.60;;;14.30;99.90;;;;;;5035201;28;20036;-80
2022/11/29 12:17:47;;;;;;;5.82;1.70;;;14.30;99.90;;;;;;5042144;28;20060;-80
2022/11/29 12:20:27;;;;;;;2.85;1.58;;;14.40;99.90;;;;;;5053357;28;20029;-79
2022/11/29 12:22:53;;;;;;;5.72;1.98;;;14.40;99.90;;;;;;5053165;28;20032;-80
2022/11/29 12:26:00;;;;;;;2.97;1.60;;;14.50;99.90;;;;;;5052764;28;20041;-80
2022/11/29 12:28:32;;;;;;;4.10;1.75;;;14.80;99.90;;;;;;4972322;28;20035;-79
2022/11/29 12:31:15;;;;;;;2.35;1.38;;;15.00;99.90;;;;;;4972185;28;20034;-80
2022/11/29 12:34:03;;;;;;;2.67;1.42;;;15.10;99.90;;;;;;4972192;28;20031;-78
2022/11/29 12:36:40;;;;;;;2.33;1.30;;;15.00;99.90;;;;;;4972041;28;20049;-78
2022/11/29 12:39:15;;;;;;;2.53;1.52;;;15.10;99.90;;;;;;4955736;28;20507;-78
2022/11/29 12:42:08;;;;;;;6.72;1.67;;;15.30;99.90;;;;;;4971782;28;20371;-77
2022/11/29 12:44:46;;;;;;;2.85;1.63;;;15.70;99.90;;;;;;4970968;28;20051;-78
2022/11/29 12:47:20;;;;;;;2.00;1.20;;;15.90;99.90;;;;;;4971322;28;20081;-76
2022/11/29 12:50:21;;;;;;;2.05;1.20;;;16.00;99.90;;;;;;4971476;28;20098;-77
2022/11/29 12:53:16;;;;;;;3.03;1.33;;;15.90;99.90;;;;;;4985141;28;20026;-75
2022/11/29 12:56:23;;;;;;;2.08;1.23;;;15.60;99.90;;;;;;5058242;22;20453;-78
2022/11/29 12:59:13;;;;;;;2.20;1.30;;;15.40;99.90;;;;;;4996300;28;20034;-79
2022/11/29 13:01:56;;;;;;;5.28;1.50;;;15.20;99.90;;;;;;5010781;28;20551;-79
2022/11/29 13:04:58;;;;;;;2.63;1.60;;;15.20;99.90;;;;;;5011014;28;20112;-78
2022/11/29 13:07:32;;;;;;;5.32;1.50;;;15.20;99.90;;;;;;5013640;28;20091;-79
2022/11/29 13:10:13;;;;;;;3.72;1.30;;;15.10;99.90;;;;;;5014802;28;20069;-79
2022/11/29 13:12:50;;;;;;;2.00;1.23;;;15.10;99.90;;;;;;5014147;28;20038;-79
2022/11/29 13:15:18;;;;;;;;;;;14.80;99.90;;;;;;5014416;28;20466;-77
2022/11/29 13:18:10;;;;;;;2.85;1.50;;;14.60;99.90;;;;;;5014202;28;19944;-77
2022/11/29 13:21:06;;;;;;;3.65;1.50;;;14.50;99.90;;;;;;5014711;28;20049;-78
2022/11/29 13:23:52;;;;;;;3.42;1.50;;;14.80;99.90;;;;;;5014013;28;20503;-79
2022/11/29 13:26:21;;;;;;;3.35;1.73;;;15.10;99.90;;;;;;5014318;28;20184;-78
2022/11/29 13:28:49;;;;;;;3.50;1.42;;;15.10;99.90;;;;;;4998148;28;20471;-78
2022/11/29 13:31:19;;;;;;;4.38;3.08;;;14.90;99.90;;;;;;5014122;28;20494;-78
2022/11/29 13:34:23;;;;;;;4.60;1.70;;;14.90;99.90;;;;;;5032078;28;20033;-78
2022/11/29 13:37:24;;;;;;;2.83;1.60;;;15.10;99.90;;;;;;5014148;28;20064;-80
2022/11/29 13:40:17;;;;;;;2.15;1.42;;;15.10;99.90;;;;;;5014026;28;20272;-77
2022/11/29 13:43:01;;;;;;;2.80;1.83;;;15.30;99.90;;;;;;5014508;28;20042;-78
2022/11/29 13:46:04;;;;;;;2.58;1.52;;;15.20;99.90;;;;;;5014344;28;20053;-78
2022/11/29 13:48:49;;;;;;;5.00;2.00;;;15.30;99.90;;;;;;5014353;28;20030;-79
2022/11/29 13:51:37;;;;;;;2.72;1.80;;;15.40;99.90;;;;;;5013590;28;20028;-78
2022/11/29 13:54:48;;;;;;;3.83;2.00;;;15.40;99.90;;;;;;5013921;28;20041;-79
2022/11/29 13:57:16;;;;;;;2.70;1.60;;;15.50;99.90;;;;;;4996497;28;20157;-78
2022/11/29 13:59:49;;;;;;;3.58;1.60;;;15.70;99.90;;;;;;4996424;28;20509;-79
2022/11/29 14:02:29;;;;;;;3.03;1.70;;;15.80;99.90;;;;;;5012928;28;20491;-82
2022/11/29 14:04:56;;;;;;;2.72;1.80;;;15.90;99.90;;;;;;5013153;28;20040;-76